Tracer — PHAC — position and weather

sailwx.info

Track history (hours):
 
Tides and Currents Weather Stations Pressure Air Temp Water Temp Dewpoint Dewpoint Depression Visibility Wind Speed Wind Dir Waves Ship Positions

Tracer

Last reported at 2014-Sep-03 04:33 UTC. Time now 2014-Sep-03 04:54 UTC.
Position N 51°03' E 001°30'.

Length 101 m; beam 20 m.

Type: Cargo ship. MMSI: 245949000.

Date/timePositionNaut miles runAvg speedWind from/ knotsBaromVisibWave heightAir tempDewpointWater temp
2014-Sep-03 04:33N 51°03' E 001°30'1413.8
2014-Sep-03 03:33N 51°13' E 001°45'1515.0
2014-Sep-03 02:33N 51°26' E 001°58'1616.0
2014-Sep-03 01:33N 51°38' E 002°13'1616.2
2014-Sep-03 00:33N 51°51' E 002°30'814.5
2014-Sep-03 00:00N 51°54' E 002°42'2516.3 040 / 41024.310.8 17.616.7
2014-Sep-02 22:26N 52°15' E 003°05'5813.1
2014-Sep-02 18:00N 53°00' E 004°06'1422.1 050 / 51024.2 5.4 0.517.915.7
2014-Sep-02 17:22N 53°10' E 004°22'24113.9
2014-Sep-02 00:00N 56°42' E 007°42'10713.8 230 / 41021.510.8 17.514.9
2014-Sep-01 16:17N 57°47' E 010°19'1014.3
2014-Sep-01 15:33N 57°49' E 010°38'8 7.4
2014-Sep-01 14:31N 57°41' E 010°38'0 0.0
2014-Sep-01 13:31N 57°41' E 010°38'0 0.0
2014-Sep-01 12:25N 57°41' E 010°38'0 0.0
2014-Sep-01 10:31N 57°41' E 010°38'0 0.0
2014-Sep-01 09:31N 57°41' E 010°38'0 0.0
2014-Sep-01 06:31N 57°41' E 010°38'0 0.0
2014-Sep-01 05:31N 57°41' E 010°38'5 5.0
2014-Sep-01 04:33N 57°39' E 010°46'1312.9
2014-Sep-01 03:34N 57°35' E 011°09'1212.3
2014-Sep-01 02:33N 57°27' E 011°27'1212.5
2014-Sep-01 01:34N 57°15' E 011°35'  
2014-Aug-28 00:30N 55°40' E 011°06'  
Track history (hours):
 
Tides and Currents Weather Stations Pressure Air Temp Water Temp Dewpoint Dewpoint Depression Visibility Wind Speed Wind Dir Waves Ship Positions

Tracer

Last reported at 2014-Sep-03 04:33 UTC. Time now 2014-Sep-03 04:54 UTC.
Position N 51°03' E 001°30'.

Length 101 m; beam 20 m.

Type: Cargo ship. MMSI: 245949000.

Date/timePositionNaut miles runAvg speedWind from/ knotsBaromVisibWave heightAir tempDewpointWater temp
2014-Sep-03 04:33N 51°03' E 001°30'1413.8
2014-Sep-03 03:33N 51°13' E 001°45'1515.0
2014-Sep-03 02:33N 51°26' E 001°58'1616.0
2014-Sep-03 01:33N 51°38' E 002°13'1616.2
2014-Sep-03 00:33N 51°51' E 002°30'814.5
2014-Sep-03 00:00N 51°54' E 002°42'2516.3 040 / 41024.310.8 17.616.7
2014-Sep-02 22:26N 52°15' E 003°05'5813.1
2014-Sep-02 18:00N 53°00' E 004°06'1422.1 050 / 51024.2 5.4 0.517.915.7
2014-Sep-02 17:22N 53°10' E 004°22'24113.9
2014-Sep-02 00:00N 56°42' E 007°42'10713.8 230 / 41021.510.8 17.514.9
2014-Sep-01 16:17N 57°47' E 010°19'1014.3
2014-Sep-01 15:33N 57°49' E 010°38'8 7.4
2014-Sep-01 14:31N 57°41' E 010°38'0 0.0
2014-Sep-01 13:31N 57°41' E 010°38'0 0.0
2014-Sep-01 12:25N 57°41' E 010°38'0 0.0
2014-Sep-01 10:31N 57°41' E 010°38'0 0.0
2014-Sep-01 09:31N 57°41' E 010°38'0 0.0
2014-Sep-01 06:31N 57°41' E 010°38'0 0.0
2014-Sep-01 05:31N 57°41' E 010°38'5 5.0
2014-Sep-01 04:33N 57°39' E 010°46'1312.9
2014-Sep-01 03:34N 57°35' E 011°09'1212.3
2014-Sep-01 02:33N 57°27' E 011°27'1212.5
2014-Sep-01 01:34N 57°15' E 011°35'  
2014-Aug-28 00:30N 55°40' E 011°06'  

Dump ship's entire track history